Time;durP1;ratioP1;P1;durP2;ratioP2;P2;SDS_P1;SDS_P2;PMS_P1;PMS_P2;Temp;Humidity;BMP_temperature;BMP_pressure;BME280_temperature;BME280_humidity;BME280_pressure;Samples;Min_cycle;Max_cycle;Signal;HPM_P1;HPM_P2
2022/05/26 00:00:37;;;;;;;2.53;0.60;;;;;;;15.06;68.71;98586.72;5101291;28;20214;-68
2022/05/26 00:03:04;;;;;;;0.77;0.70;;;;;;;15.16;68.30;98591.16;5103576;28;20245;-70
2022/05/26 00:05:32;;;;;;;1.20;0.80;;;;;;;15.21;68.22;98593.50;5104074;28;20215;-69
2022/05/26 00:07:58;;;;;;;2.30;0.73;;;;;;;15.28;67.59;98594.69;5102005;28;20697;-69
2022/05/26 00:10:25;;;;;;;2.77;0.60;;;;;;;15.39;67.21;98592.03;5101404;28;20219;-69
2022/05/26 00:12:51;;;;;;;1.53;0.80;;;;;;;15.43;67.08;98604.13;5103704;28;20211;-69
2022/05/26 00:15:18;;;;;;;1.93;0.70;;;;;;;15.44;66.70;98600.47;5104981;28;20210;-69
2022/05/26 00:17:44;;;;;;;1.63;0.80;;;;;;;15.55;66.78;98608.44;5102976;28;20225;-69
2022/05/26 00:20:12;;;;;;;1.90;0.90;;;;;;;15.55;66.78;98611.09;5101238;28;20215;-69
2022/05/26 00:22:40;;;;;;;0.90;0.60;;;;;;;15.53;66.73;98610.41;5103120;28;20230;-69
2022/05/26 00:25:07;;;;;;;0.63;0.50;;;;;;;15.60;66.83;98608.94;5104580;28;20214;-69
2022/05/26 00:27:33;;;;;;;1.00;0.77;;;;;;;15.54;66.80;98604.09;5102535;28;20206;-69
2022/05/26 00:30:00;;;;;;;2.00;0.60;;;;;;;15.56;66.87;98615.47;5097239;28;20206;-69
2022/05/26 00:32:26;;;;;;;0.70;0.70;;;;;;;15.56;67.49;98615.47;5102695;28;20569;-69
2022/05/26 00:34:53;;;;;;;1.03;0.70;;;;;;;15.47;67.51;98610.91;5100679;28;20215;-69
2022/05/26 00:37:19;;;;;;;0.57;0.43;;;;;;;15.45;67.74;98611.00;5102043;28;20233;-69
2022/05/26 00:39:47;;;;;;;0.93;0.80;;;;;;;15.47;67.57;98617.06;5104265;28;20214;-69
2022/05/26 00:42:14;;;;;;;1.40;0.60;;;;;;;15.32;67.61;98612.97;5103013;28;20225;-69
2022/05/26 00:44:42;;;;;;;2.30;1.00;;;;;;;15.22;68.19;98613.81;5100375;28;20246;-69
2022/05/26 00:47:12;;;;;;;0.57;0.50;;;;;;;15.06;68.73;98616.00;5103493;28;20211;-68
2022/05/26 00:49:43;;;;;;;1.70;0.70;;;;;;;14.92;69.43;98609.09;5110633;28;20214;-69
2022/05/26 00:52:12;;;;;;;0.80;0.80;;;;;;;14.84;69.99;98610.69;5107103;28;20246;-69
2022/05/26 00:54:39;;;;;;;2.10;0.80;;;;;;;14.73;70.55;98613.34;5108026;28;20698;-69
2022/05/26 00:57:12;;;;;;;1.40;0.70;;;;;;;14.70;70.92;98610.91;5104075;28;20214;-69
2022/05/26 00:59:43;;;;;;;0.70;0.70;;;;;;;14.70;70.61;98608.25;5110878;28;20221;-69
2022/05/26 01:02:12;;;;;;;0.97;0.60;;;;;;;14.59;71.05;98608.22;5108452;28;20246;-69
2022/05/26 01:04:43;;;;;;;1.37;0.70;;;;;;;14.57;71.32;98607.50;5108099;28;20214;-68
2022/05/26 01:07:14;;;;;;;1.53;0.70;;;;;;;14.56;71.45;98606.69;5108276;28;20222;-69
2022/05/26 01:09:41;;;;;;;0.60;0.57;;;;;;;14.48;71.07;98608.25;5111253;28;20210;-70
2022/05/26 01:12:09;;;;;;;0.77;0.60;;;;;;;14.47;71.46;98617.16;5108397;28;20221;-69
2022/05/26 01:14:40;;;;;;;1.40;0.70;;;;;;;14.51;71.01;98608.00;5104304;28;20211;-69
2022/05/26 01:17:17;;;;;;;0.80;0.60;;;;;;;14.54;71.09;98613.09;5107714;28;20209;-69
2022/05/26 01:20:12;;;;;;;3.10;1.07;;;;;;;14.43;71.62;98605.91;5105030;28;20213;-68
2022/05/26 01:23:11;;;;;;;1.30;0.70;;;;;;;14.44;72.37;98609.44;5103688;28;20238;-69
2022/05/26 01:26:09;;;;;;;1.00;0.73;;;;;;;14.35;73.12;98600.34;5104928;28;20214;-69
2022/05/26 01:28:55;;;;;;;2.03;0.60;;;;;;;14.33;73.95;98596.13;5103991;28;20242;-68
2022/05/26 01:31:36;;;;;;;2.40;0.80;;;;;;;14.26;73.48;98597.56;5111898;28;20214;-70
2022/05/26 01:34:12;;;;;;;1.10;0.70;;;;;;;14.28;73.52;98590.28;5103395;28;20218;-69
2022/05/26 01:36:47;;;;;;;2.00;0.87;;;;;;;14.23;74.70;98593.31;5103776;28;20213;-69
2022/05/26 01:39:22;;;;;;;1.77;1.00;;;;;;;14.12;74.93;98598.56;5104842;28;20222;-69
2022/05/26 01:42:05;;;;;;;1.03;0.70;;;;;;;14.08;75.73;98604.22;5107028;28;20663;-68
2022/05/26 01:44:41;;;;;;;2.27;0.70;;;;;;;14.00;75.06;98601.31;5103502;28;20745;-69
2022/05/26 01:47:15;;;;;;;0.70;0.70;;;;;;;14.05;74.15;98610.63;5104522;28;20241;-68
2022/05/26 01:49:47;;;;;;;1.23;0.80;;;;;;;13.99;74.70;98604.94;5106326;28;20209;-69
2022/05/26 01:52:17;;;;;;;1.43;0.67;;;;;;;13.96;74.04;98605.16;5104173;28;20272;-69
2022/05/26 01:54:49;;;;;;;1.33;0.67;;;;;;;13.96;74.29;98607.81;5103032;28;20217;-68
2022/05/26 01:57:21;;;;;;;1.20;0.80;;;;;;;13.94;74.22;98596.47;5102669;28;20299;-68
2022/05/26 01:59:51;;;;;;;1.47;0.87;;;;;;;13.87;74.20;98604.03;5102273;28;20698;-69
2022/05/26 02:02:24;;;;;;;1.07;0.87;;;;;;;13.85;74.65;98602.44;5106769;28;20241;-68
2022/05/26 02:04:55;;;;;;;2.50;0.80;;;;;;;13.86;74.50;98604.16;5104642;28;20603;-69
2022/05/26 02:07:32;;;;;;;2.47;0.70;;;;;;;13.85;74.85;98605.13;5107170;28;20213;-69
2022/05/26 02:10:03;;;;;;;1.73;0.73;;;;;;;13.80;74.53;98607.25;5103626;28;20222;-68
2022/05/26 02:12:33;;;;;;;1.03;0.80;;;;;;;13.80;74.30;98607.25;5103155;28;20587;-68
2022/05/26 02:15:05;;;;;;;1.37;0.70;;;;;;;13.76;74.50;98608.47;5101451;28;20211;-69
2022/05/26 02:17:36;;;;;;;0.67;0.60;;;;;;;13.80;74.25;98607.25;5103256;28;20213;-68
2022/05/26 02:20:07;;;;;;;0.80;0.50;;;;;;;13.81;74.31;98608.97;5106278;28;20224;-69
2022/05/26 02:22:37;;;;;;;1.13;0.50;;;;;;;13.85;73.93;98607.78;5104162;28;20774;-69
2022/05/26 02:25:08;;;;;;;2.20;0.87;;;;;;;13.83;73.45;98604.38;5102613;28;20211;-68
2022/05/26 02:27:36;;;;;;;0.70;0.70;;;;;;;13.80;73.90;98601.94;5104886;28;20216;-69
2022/05/26 02:30:04;;;;;;;0.60;0.50;;;;;;;13.77;74.16;98607.50;5107026;28;20606;-68
2022/05/26 02:32:36;;;;;;;1.53;0.60;;;;;;;13.76;73.75;98611.13;5110727;28;20210;-68
2022/05/26 02:35:07;;;;;;;0.80;0.70;;;;;;;13.69;74.17;98605.41;5101921;28;20691;-68
2022/05/26 02:37:35;;;;;;;1.47;0.70;;;;;;;13.66;74.46;98608.31;5105748;28;20218;-68
2022/05/26 02:40:01;;;;;;;1.43;0.80;;;;;;;13.61;74.67;98606.94;5104252;28;20215;-68
2022/05/26 02:42:29;;;;;;;1.33;0.67;;;;;;;13.56;74.43;98606.44;5101731;28;20206;-68
2022/05/26 02:44:57;;;;;;;0.70;0.70;;;;;;;13.56;75.15;98611.75;5101974;28;20238;-69
2022/05/26 02:47:38;;;;;;;1.03;0.53;;;;;;;13.54;75.68;98603.03;5105755;28;20213;-69
2022/05/26 02:50:19;;;;;;;0.53;0.53;;;;;;;13.54;76.29;98608.34;5104161;28;20256;-69
2022/05/26 02:53:01;;;;;;;1.00;0.70;;;;;;;13.49;76.29;98610.50;5102083;28;20218;-68
2022/05/26 02:55:43;;;;;;;1.53;0.90;;;;;;;13.43;76.85;98610.94;5102211;28;20234;-69
2022/05/26 02:58:15;;;;;;;1.53;0.80;;;;;;;13.35;76.24;98615.97;5105295;28;20213;-68
2022/05/26 03:00:50;;;;;;;0.90;0.80;;;;;;;13.40;76.24;98613.84;5105804;28;20555;-68
2022/05/26 03:03:24;;;;;;;2.93;0.70;;;;;;;13.42;76.12;98611.91;5101776;28;20329;-70
2022/05/26 03:05:56;;;;;;;1.73;0.83;;;;;;;13.42;76.27;98615.41;5102006;28;20217;-69
2022/05/26 03:08:27;;;;;;;1.33;0.60;;;;;;;13.41;76.03;98615.53;5105869;28;20210;-69
2022/05/26 03:11:04;;;;;;;2.23;0.60;;;;;;;13.47;76.08;98612.41;5102305;28;20301;-68
2022/05/26 03:13:31;;;;;;;1.07;0.80;;;;;;;13.52;75.63;98615.59;5101691;28;20221;-69
2022/05/26 03:15:58;;;;;;;1.50;0.70;;;;;;;13.54;75.15;98619.84;5105565;28;20210;-68
2022/05/26 03:18:25;;;;;;;2.50;0.73;;;;;;;13.56;75.26;98623.22;5105856;28;20213;-68
2022/05/26 03:20:52;;;;;;;1.67;0.70;;;;;;;13.59;75.05;98622.16;5101718;28;20211;-69
2022/05/26 03:23:18;;;;;;;1.10;0.60;;;;;;;13.56;75.55;98619.72;5101810;28;20245;-68
2022/05/26 03:25:45;;;;;;;1.00;0.70;;;;;;;13.59;75.43;98622.16;5101518;28;20217;-69
2022/05/26 03:28:12;;;;;;;1.57;0.70;;;;;;;13.65;75.64;98629.66;5101580;28;20276;-69
2022/05/26 03:30:39;;;;;;;1.80;0.70;;;;;;;13.61;75.75;98629.03;5105963;28;20206;-70
2022/05/26 03:33:06;;;;;;;0.87;0.60;;;;;;;13.70;75.22;98624.88;5103682;28;20210;-69
2022/05/26 03:41:02;;;;;;;2.00;0.70;;;;;;;13.78;74.77;98636.63;5104948;28;20312;-69
2022/05/26 03:43:32;;;;;;;1.30;0.60;;;;;;;13.77;75.52;98636.72;5101070;28;20260;-69
2022/05/26 03:45:59;;;;;;;0.60;0.60;;;;;;;13.59;76.87;98624.81;5101406;28;20309;-69
2022/05/26 03:48:27;;;;;;;0.80;0.70;;;;;;;13.53;76.94;98630.56;5105064;28;20310;-69
2022/05/26 03:50:55;;;;;;;0.53;0.53;;;;;;;13.51;76.75;98638.63;5104621;28;20219;-69
2022/05/26 03:53:21;;;;;;;1.27;0.90;;;;;;;13.50;77.43;98636.13;5100956;28;20213;-69
2022/05/26 03:55:48;;;;;;;1.40;0.80;;;;;;;13.44;77.38;98645.34;5101089;28;20229;-70
2022/05/26 03:58:14;;;;;;;0.77;0.60;;;;;;;13.43;77.79;98640.16;5103173;28;20221;-69
2022/05/26 04:00:41;;;;;;;0.90;0.80;;;;;;;13.47;77.50;98641.63;5105016;28;20210;-69
2022/05/26 04:03:08;;;;;;;0.90;0.90;;;;;;;13.49;77.92;98637.91;5100990;28;20662;-69
2022/05/26 04:05:34;;;;;;;1.40;0.70;;;;;;;13.60;77.82;98645.94;5101012;28;20583;-68
2022/05/26 04:08:02;;;;;;;0.90;0.80;;;;;;;13.61;77.95;98652.94;5104463;28;20209;-69
2022/05/26 04:10:29;;;;;;;1.07;0.70;;;;;;;13.66;77.32;98660.56;5104789;28;20221;-69
2022/05/26 04:12:56;;;;;;;1.27;0.60;;;;;;;13.68;77.92;98656.00;5101172;28;20234;-69
2022/05/26 04:15:23;;;;;;;2.47;0.93;;;;;;;13.77;77.96;98660.63;5100738;28;20671;-69
2022/05/26 04:17:50;;;;;;;3.17;1.03;;;;;;;13.77;77.84;98663.28;5104395;28;20210;-69
2022/05/26 04:20:19;;;;;;;1.63;0.70;;;;;;;13.84;77.67;98669.84;5104706;28;20214;-69
2022/05/26 04:22:46;;;;;;;1.57;0.70;;;;;;;13.87;77.74;98675.78;5103591;28;20210;-69
2022/05/26 04:25:14;;;;;;;1.63;0.70;;;;;;;13.99;76.88;98671.38;5103029;28;20325;-69
2022/05/26 04:27:41;;;;;;;0.70;0.70;;;;;;;14.18;76.44;98677.03;5108301;28;20221;-69
2022/05/26 04:30:10;;;;;;;1.67;0.90;;;;;;;14.38;75.15;98684.38;5107997;28;20209;-68
2022/05/26 04:32:39;;;;;;;1.10;0.80;;;;;;;14.56;74.32;98685.63;5107057;28;20214;-68
2022/05/26 04:35:06;;;;;;;1.80;0.70;;;;;;;14.73;73.46;98677.22;5108802;28;20211;-68
2022/05/26 04:37:32;;;;;;;1.67;0.70;;;;;;;14.82;73.07;98677.34;5108916;28;20214;-69
2022/05/26 04:40:00;;;;;;;1.80;0.90;;;;;;;14.81;73.07;98673.00;5108337;28;20217;-68
2022/05/26 04:42:29;;;;;;;0.70;0.70;;;;;;;14.83;73.58;98683.50;5104536;28;20246;-69
2022/05/26 04:44:56;;;;;;;1.63;0.80;;;;;;;14.74;74.54;98681.56;5104512;28;20300;-69
2022/05/26 04:47:22;;;;;;;0.80;0.80;;;;;;;14.75;74.81;98680.59;5104443;28;20214;-70
2022/05/26 04:49:49;;;;;;;1.73;0.70;;;;;;;14.57;75.58;98692.63;5102903;28;20217;-69
2022/05/26 04:52:17;;;;;;;1.37;0.80;;;;;;;14.45;76.27;98696.22;5108331;28;20221;-69
2022/05/26 04:54:44;;;;;;;0.90;0.70;;;;;;;14.36;76.69;98683.66;5108399;28;20206;-69
2022/05/26 04:57:12;;;;;;;0.90;0.80;;;;;;;14.40;76.18;98685.09;5104272;28;20686;-69
2022/05/26 04:59:40;;;;;;;0.63;0.63;;;;;;;14.42;75.47;98688.50;5104199;28;20218;-69
2022/05/26 05:02:10;;;;;;;0.77;0.77;;;;;;;14.56;75.68;98693.63;5104129;28;20214;-69
2022/05/26 05:04:39;;;;;;;1.77;0.80;;;;;;;14.68;75.33;98695.34;5104037;28;20238;-69
2022/05/26 05:07:07;;;;;;;1.40;0.70;;;;;;;15.01;73.76;98698.03;5104308;28;20215;-69
2022/05/26 05:09:33;;;;;;;1.33;0.60;;;;;;;15.97;69.69;98698.22;5104369;28;20229;-69
2022/05/26 05:12:00;;;;;;;1.30;0.90;;;;;;;16.91;65.27;98701.69;5107907;28;20214;-68
2022/05/26 05:14:26;;;;;;;1.70;0.70;;;;;;;17.93;61.82;98699.75;5107953;28;20206;-69
2022/05/26 05:16:54;;;;;;;0.67;0.67;;;;;;;19.02;58.84;98694.78;5102482;28;20222;-68
2022/05/26 05:19:21;;;;;;;1.90;0.60;;;;;;;20.09;55.98;98698.59;5104024;28;20226;-69
2022/05/26 05:21:53;;;;;;;0.70;0.70;;;;;;;21.18;53.03;98701.75;5103517;28;20553;-69
2022/05/26 05:24:27;;;;;;;1.77;0.60;;;;;;;22.16;49.31;98698.38;5103512;28;20239;-69
2022/05/26 05:26:59;;;;;;;1.33;0.60;;;;;;;21.98;47.80;98705.72;5107476;28;20210;-70
2022/05/26 05:29:30;;;;;;;0.60;0.60;;;;;;;20.81;49.61;98710.03;5100355;28;20214;-69
2022/05/26 05:32:03;;;;;;;0.50;0.50;;;;;;;19.47;52.90;98711.91;5108741;28;20215;-68
2022/05/26 05:34:36;;;;;;;0.97;0.70;;;;;;;18.76;56.12;98715.16;5106530;28;20221;-70
2022/05/26 05:37:03;;;;;;;0.83;0.73;;;;;;;18.26;58.06;98716.25;5107312;28;20217;-69
2022/05/26 05:39:29;;;;;;;0.83;0.60;;;;;;;17.93;59.16;98718.47;5103611;28;20599;-69
2022/05/26 05:41:56;;;;;;;0.83;0.70;;;;;;;18.19;59.47;98722.28;5101564;28;20215;-68
2022/05/26 05:44:23;;;;;;;2.67;0.60;;;;;;;18.15;58.25;98727.09;5106381;28;20245;-70
2022/05/26 05:46:57;;;;;;;0.60;0.60;;;;;;;17.68;60.57;98724.31;5107000;28;20214;-68
2022/05/26 05:49:26;;;;;;;2.80;0.70;;;;;;;17.24;60.77;98735.34;5107894;28;20222;-70
2022/05/26 05:51:53;;;;;;;1.23;0.73;;;;;;;17.03;62.01;98743.38;5103643;28;20222;-69
2022/05/26 05:54:20;;;;;;;0.87;0.60;;;;;;;17.16;62.94;98735.13;5106941;28;20580;-69
2022/05/26 05:56:48;;;;;;;1.33;0.70;;;;;;;17.89;60.52;98733.94;5106404;28;20213;-69
2022/05/26 05:59:15;;;;;;;0.83;0.50;;;;;;;18.26;58.11;98735.00;5103053;28;20222;-69
2022/05/26 06:01:42;;;;;;;1.07;0.70;;;;;;;18.12;58.95;98737.22;5102873;28;20218;-69
2022/05/26 06:04:09;;;;;;;2.17;0.87;;;;;;;17.75;60.32;98736.97;5106561;28;20233;-68
2022/05/26 06:06:39;;;;;;;2.40;0.67;;;;;;;17.61;61.59;98745.38;5106171;28;20694;-69
2022/05/26 06:09:05;;;;;;;1.40;0.70;;;;;;;17.39;62.65;98740.22;5101152;28;20305;-68
2022/05/26 06:11:33;;;;;;;1.00;0.67;;;;;;;17.39;63.02;98748.25;5102928;28;20207;-68
2022/05/26 06:14:00;;;;;;;0.73;0.60;;;;;;;17.41;62.61;98756.97;5106664;28;20214;-68
2022/05/26 06:16:27;;;;;;;0.90;0.80;;;;;;;17.43;62.62;98757.66;5106103;28;20218;-68
2022/05/26 06:18:54;;;;;;;1.47;0.70;;;;;;;17.39;62.06;98756.25;5102307;28;20223;-69
2022/05/26 06:21:21;;;;;;;1.40;0.70;;;;;;;17.47;62.52;98759.09;5102900;28;20272;-69
2022/05/26 06:23:49;;;;;;;0.83;0.73;;;;;;;17.47;62.71;98761.78;5106016;28;20725;-68
2022/05/26 06:26:15;;;;;;;1.63;0.70;;;;;;;17.43;61.66;98763.00;5105858;28;20218;-69
2022/05/26 06:31:26;;;;;;;1.13;0.63;;;;;;;17.45;62.40;98758.41;5106403;28;20260;-68
2022/05/26 06:39:23;;;;;;;1.00;0.70;;;;;;;17.70;61.17;98765.09;5104966;28;20213;-68
2022/05/26 06:42:06;;;;;;;1.70;0.60;;;;;;;17.66;61.15;98764.53;5106051;28;20214;-68
2022/05/26 06:44:33;;;;;;;0.70;0.60;;;;;;;17.79;61.64;98765.13;5101660;28;20253;-69
2022/05/26 06:47:00;;;;;;;0.67;0.63;;;;;;;17.84;60.28;98762.91;5102951;28;20211;-68
2022/05/26 06:49:26;;;;;;;2.60;0.90;;;;;;;17.94;59.96;98769.16;5105855;28;20220;-69
2022/05/26 06:51:52;;;;;;;1.13;0.50;;;;;;;18.15;59.53;98769.91;5104936;28;20213;-69
2022/05/26 06:54:19;;;;;;;1.90;0.70;;;;;;;18.17;57.84;98769.75;5098654;28;20215;-68
2022/05/26 06:56:47;;;;;;;2.17;0.90;;;;;;;18.25;57.79;98778.78;5101184;28;20211;-68
2022/05/26 06:59:13;;;;;;;0.73;0.60;;;;;;;18.64;58.04;98785.03;5104783;28;20221;-68
2022/05/26 07:01:40;;;;;;;2.00;0.57;;;;;;;18.98;58.16;98786.31;5102344;28;20210;-68
2022/05/26 07:04:06;;;;;;;0.80;0.50;;;;;;;19.10;58.90;98791.41;5104402;28;20237;-68
2022/05/26 07:06:33;;;;;;;1.67;0.70;;;;;;;19.06;57.19;98789.97;5101610;28;20673;-68
2022/05/26 07:08:59;;;;;;;1.20;0.70;;;;;;;19.02;55.86;98796.59;5101735;28;20222;-69
2022/05/26 07:11:26;;;;;;;2.00;0.67;;;;;;;19.16;56.13;98798.88;5101631;28;20671;-68
2022/05/26 07:13:53;;;;;;;1.73;0.80;;;;;;;19.44;54.23;98797.16;5101615;28;20213;-68
2022/05/26 07:16:20;;;;;;;1.00;0.60;;;;;;;19.74;53.20;98795.06;5101776;28;20621;-67
2022/05/26 07:18:47;;;;;;;1.13;0.70;;;;;;;20.25;53.91;98800.75;5105056;28;20292;-68
2022/05/26 07:21:13;;;;;;;0.60;0.50;;;;;;;20.55;51.56;98800.44;5105542;28;20217;-68
2022/05/26 07:23:41;;;;;;;1.10;0.50;;;;;;;20.77;50.55;98805.38;5101807;28;20210;-68
2022/05/26 07:26:08;;;;;;;1.33;0.70;;;;;;;21.04;50.02;98810.69;5100079;28;20242;-69
2022/05/26 07:28:36;;;;;;;0.90;0.63;;;;;;;21.20;48.20;98804.59;5103265;28;20218;-70
2022/05/26 07:31:04;;;;;;;0.93;0.60;;;;;;;21.39;48.17;98807.94;5109432;28;20210;-68
2022/05/26 07:33:30;;;;;;;2.13;0.70;;;;;;;21.48;47.91;98804.34;5101200;28;20215;-68
2022/05/26 07:35:57;;;;;;;0.90;0.60;;;;;;;21.70;47.60;98803.81;5101445;28;20207;-68
2022/05/26 07:41:18;;;;;;;1.40;0.70;;;;;;;21.93;47.10;98818.41;5100557;28;20347;-69
2022/05/26 07:43:48;;;;;;;2.27;0.80;;;;;;;22.03;45.67;98810.22;5100144;28;20242;-68
2022/05/26 07:46:17;;;;;;;1.77;0.60;;;;;;;22.03;46.29;98808.38;5107099;28;20258;-68
2022/05/26 07:48:43;;;;;;;2.30;0.70;;;;;;;21.78;46.19;98811.94;5097219;28;20220;-70
2022/05/26 07:51:10;;;;;;;1.00;0.60;;;;;;;21.21;47.49;98825.97;5100443;28;20268;-69
2022/05/26 07:53:36;;;;;;;1.50;0.63;;;;;;;20.69;48.61;98818.72;5106207;28;20216;-68
2022/05/26 07:56:03;;;;;;;1.83;0.60;;;;;;;20.34;50.44;98821.38;5108943;28;20222;-69
2022/05/26 07:58:30;;;;;;;2.07;0.87;;;;;;;19.96;51.30;98832.25;5110399;28;20210;-70
2022/05/26 08:00:56;;;;;;;1.27;0.70;;;;;;;19.93;51.58;98827.19;5109960;28;20220;-71
2022/05/26 08:03:24;;;;;;;0.83;0.70;;;;;;;20.06;51.59;98822.34;5111061;28;20217;-69
2022/05/26 08:05:50;;;;;;;1.33;0.60;;;;;;;19.97;51.08;98823.22;5111776;28;20241;-68
2022/05/26 08:08:17;;;;;;;1.60;0.70;;;;;;;20.18;51.67;98823.84;5111267;28;20218;-68
2022/05/26 08:10:43;;;;;;;0.87;0.60;;;;;;;20.40;51.46;98830.66;5108681;28;20219;-69
2022/05/26 08:13:10;;;;;;;6.40;0.93;;;;;;;20.42;50.00;98831.38;5111958;28;20217;-67
2022/05/26 08:15:37;;;;;;;1.30;0.60;;;;;;;20.33;50.16;98835.78;5112050;28;20214;-68
2022/05/26 08:18:04;;;;;;;1.57;0.77;;;;;;;20.40;49.91;98836.00;5110978;28;20210;-69
2022/05/26 08:20:31;;;;;;;0.87;0.80;;;;;;;20.50;50.42;98837.66;5107323;28;20683;-69
2022/05/26 08:22:58;;;;;;;1.17;0.73;;;;;;;20.61;50.29;98842.81;5112050;28;20211;-67
2022/05/26 08:25:26;;;;;;;1.23;0.70;;;;;;;20.70;51.92;98844.59;5109667;28;20234;-68
2022/05/26 08:27:52;;;;;;;0.87;0.60;;;;;;;20.66;51.02;98843.19;5102750;28;20748;-70
2022/05/26 08:30:19;;;;;;;1.87;0.63;;;;;;;20.55;50.70;98840.72;5109253;28;20568;-68
2022/05/26 08:32:45;;;;;;;1.63;0.63;;;;;;;20.42;51.16;98848.28;5111327;28;20217;-69
2022/05/26 08:35:12;;;;;;;2.00;0.70;;;;;;;20.20;49.79;98846.03;5112006;28;20689;-68
2022/05/26 08:37:40;;;;;;;1.70;0.60;;;;;;;20.21;51.04;98849.53;5111997;28;20221;-69
2022/05/26 08:40:08;;;;;;;1.20;0.57;;;;;;;20.40;49.58;98852.97;5105270;28;20216;-69
2022/05/26 08:42:37;;;;;;;1.03;0.50;;;;;;;20.66;49.93;98859.31;5109195;28;20286;-70
2022/05/26 08:45:08;;;;;;;0.80;0.50;;;;;;;20.90;49.58;98851.53;5107833;28;20333;-67
2022/05/26 08:47:40;;;;;;;1.30;0.53;;;;;;;21.21;50.15;98858.22;5103205;28;20228;-66
2022/05/26 08:50:10;;;;;;;1.13;0.70;;;;;;;21.50;48.24;98856.13;5108418;28;20233;-67
2022/05/26 08:52:43;;;;;;;1.20;0.67;;;;;;;21.55;47.63;98859.19;5112706;28;20218;-67
2022/05/26 08:55:15;;;;;;;0.77;0.67;;;;;;;21.52;48.20;98864.88;5102894;28;20678;-67
2022/05/26 08:57:44;;;;;;;0.50;0.50;;;;;;;21.51;48.24;98857.81;5101034;28;20282;-68
2022/05/26 09:00:15;;;;;;;0.83;0.63;;;;;;;21.60;47.43;98869.47;5099449;28;20214;-67
2022/05/26 09:02:42;;;;;;;0.80;0.80;;;;;;;21.69;47.36;98866.72;5099878;28;20206;-67
2022/05/26 09:05:13;;;;;;;0.83;0.60;;;;;;;21.87;47.43;98864.81;5103340;28;20828;-67
2022/05/26 09:13:26;;;;;;;1.30;0.70;;;;;;;21.99;46.88;98863.53;5099401;28;20287;-68
2022/05/26 09:15:52;;;;;;;1.93;0.60;;;;;;;22.28;47.40;98855.97;5099869;28;20310;-69
2022/05/26 09:18:21;;;;;;;1.40;0.70;;;;;;;22.25;46.15;98864.34;5099946;28;20210;-68
2022/05/26 09:20:50;;;;;;;1.20;0.80;;;;;;;21.91;46.57;98863.50;5103753;28;20217;-69
2022/05/26 09:23:24;;;;;;;0.73;0.53;;;;;;;21.81;46.88;98872.66;5100912;28;20214;-68
2022/05/26 09:25:54;;;;;;;3.17;0.90;;;;;;;21.83;47.90;98876.88;5099776;28;20244;-69
2022/05/26 09:28:33;;;;;;;1.13;0.70;;;;;;;21.92;47.25;98864.31;5101388;28;20297;-69
2022/05/26 09:31:22;;;;;;;2.53;0.70;;;;;;;22.01;46.58;98866.91;5105711;28;20233;-69
2022/05/26 09:34:09;;;;;;;1.20;0.73;;;;;;;22.20;46.64;98871.22;5096846;28;20217;-69
2022/05/26 09:36:40;;;;;;;2.07;0.73;;;;;;;22.31;47.44;98865.56;5104382;28;20215;-69
2022/05/26 09:39:08;;;;;;;1.40;0.83;;;;;;;22.49;47.17;98877.94;5107647;28;20252;-69
2022/05/26 09:41:39;;;;;;;1.07;0.80;;;;;;;22.61;47.14;98870.44;5106415;28;20221;-69
2022/05/26 09:44:28;;;;;;;1.77;0.70;;;;;;;22.80;46.71;98870.97;5106334;28;20249;-70
2022/05/26 09:46:58;;;;;;;2.17;0.83;;;;;;;22.88;46.31;98887.19;5107375;28;20224;-70
2022/05/26 09:49:31;;;;;;;1.97;0.70;;;;;;;22.81;45.30;98883.44;5107916;28;20213;-70
2022/05/26 09:52:10;;;;;;;0.70;0.70;;;;;;;22.68;45.71;98885.75;5106135;28;20214;-70
2022/05/26 09:54:38;;;;;;;0.87;0.70;;;;;;;22.63;46.57;98890.81;5105588;28;20215;-70
2022/05/26 09:57:18;;;;;;;1.00;0.70;;;;;;;22.56;46.90;98884.38;5108011;28;20214;-70
2022/05/26 09:59:45;;;;;;;1.67;0.80;;;;;;;22.47;46.57;98898.84;5106339;28;20668;-70
2022/05/26 10:02:16;;;;;;;1.67;1.00;;;;;;;22.16;46.33;98886.88;5103876;28;20215;-70
2022/05/26 10:04:58;;;;;;;1.00;0.77;;;;;;;21.85;47.57;98893.75;5099221;28;20222;-70
2022/05/26 10:07:36;;;;;;;1.33;0.90;;;;;;;21.78;48.61;98898.06;5098716;28;20222;-69
2022/05/26 10:10:12;;;;;;;1.60;0.80;;;;;;;21.76;48.92;98889.28;5103770;28;20218;-69
2022/05/26 10:12:52;;;;;;;1.60;0.60;;;;;;;21.80;48.81;98893.38;5098883;28;20210;-70
2022/05/26 10:15:27;;;;;;;0.77;0.70;;;;;;;21.90;48.75;98896.81;5099042;28;20222;-69
2022/05/26 10:18:12;;;;;;;3.63;1.00;;;;;;;21.83;47.74;98894.91;5103223;28;20675;-69
2022/05/26 10:20:46;;;;;;;1.17;0.70;;;;;;;21.84;48.69;98897.44;5097989;28;20210;-70
2022/05/26 10:23:24;;;;;;;1.43;0.77;;;;;;;21.92;47.35;98889.41;5095569;28;20228;-69
2022/05/26 10:26:02;;;;;;;0.73;0.70;;;;;;;22.00;47.61;98902.09;5102502;28;20249;-70
2022/05/26 10:28:41;;;;;;;1.93;0.67;;;;;;;22.14;47.71;98896.94;5098572;28;20207;-69
2022/05/26 10:31:20;;;;;;;1.23;0.70;;;;;;;22.48;47.74;98886.19;5104563;28;20213;-70
2022/05/26 10:34:01;;;;;;;2.57;1.00;;;;;;;22.83;46.34;98886.84;5100911;28;20240;-69
2022/05/26 10:36:43;;;;;;;0.97;0.70;;;;;;;23.00;45.78;98891.25;5102569;28;20222;-68
2022/05/26 10:39:17;;;;;;;1.13;0.60;;;;;;;23.19;45.90;98888.28;5097752;28;20236;-70
2022/05/26 10:41:49;;;;;;;1.03;0.70;;;;;;;23.42;44.80;98888.47;5108233;28;20218;-70
2022/05/26 10:44:25;;;;;;;1.63;0.67;;;;;;;23.16;44.52;98885.91;5103395;28;20723;-69
2022/05/26 10:46:59;;;;;;;0.77;0.77;;;;;;;23.11;46.10;98890.09;5098615;28;20233;-69
2022/05/26 10:49:34;;;;;;;1.10;0.60;;;;;;;22.77;44.30;98894.72;5109030;28;20584;-69
2022/05/26 10:52:07;;;;;;;1.47;0.90;;;;;;;22.12;45.87;98896.25;5102473;28;20209;-69
2022/05/26 10:54:40;;;;;;;2.13;0.90;;;;;;;21.50;47.42;98887.53;5099992;28;20249;-69
2022/05/26 10:57:14;;;;;;;3.30;0.90;;;;;;;21.17;49.07;98897.19;5105915;28;20214;-69
2022/05/26 10:59:45;;;;;;;3.50;1.10;;;;;;;20.96;50.66;98893.94;5101961;28;20255;-69
2022/05/26 11:02:19;;;;;;;1.83;0.90;;;;;;;21.12;51.01;98891.41;5100542;28;20590;-70
2022/05/26 11:04:54;;;;;;;1.13;0.80;;;;;;;21.48;51.56;98890.41;5108263;28;20225;-71
2022/05/26 11:07:30;;;;;;;1.13;0.90;;;;;;;21.86;49.84;98894.56;5105730;28;20245;-70
2022/05/26 11:10:03;;;;;;;1.27;0.93;;;;;;;22.12;48.02;98890.88;5104276;28;20222;-69
2022/05/26 11:12:37;;;;;;;0.97;0.80;;;;;;;22.43;48.06;98889.38;5098598;28;20313;-69
2022/05/26 11:17:57;;;;;;;1.83;0.80;;;;;;;22.76;47.01;98893.91;5104859;28;20855;-69
2022/05/26 11:20:28;;;;;;;1.77;1.13;;;;;;;22.87;46.59;98887.34;5098131;28;20215;-70
2022/05/26 11:23:02;;;;;;;1.47;0.80;;;;;;;23.01;46.58;98890.25;5108564;28;20726;-69
2022/05/26 11:25:32;;;;;;;1.37;0.90;;;;;;;22.85;45.54;98892.06;5102573;28;20294;-69
2022/05/26 11:28:07;;;;;;;1.67;0.83;;;;;;;22.32;47.00;98894.19;5099295;28;20218;-70
2022/05/26 11:36:21;;;;;;;1.27;0.70;;;;;;;21.93;49.02;98901.88;5098017;28;20229;-69
2022/05/26 11:38:51;;;;;;;1.20;0.90;;;;;;;21.79;49.10;98899.75;5104849;28;20218;-70
2022/05/26 11:41:27;;;;;;;1.67;0.90;;;;;;;21.60;50.02;98908.00;5103192;28;20221;-70
2022/05/26 11:44:04;;;;;;;1.30;0.80;;;;;;;21.59;51.06;98903.59;5098272;28;20897;-70
2022/05/26 11:46:53;;;;;;;1.37;0.90;;;;;;;21.70;51.16;98906.06;5108355;28;20241;-71
2022/05/26 11:49:56;;;;;;;2.93;1.13;;;;;;;21.84;50.23;98897.44;5103980;28;20214;-70
2022/05/26 11:52:27;;;;;;;1.37;1.00;;;;;;;21.90;50.35;98901.34;5106997;28;20211;-70
2022/05/26 11:55:10;;;;;;;3.17;1.13;;;;;;;22.27;50.25;98894.66;5101414;28;20217;-70
2022/05/26 11:57:38;;;;;;;1.30;0.73;;;;;;;22.51;48.75;98892.13;5096429;28;20206;-70
2022/05/26 12:00:23;;;;;;;0.93;0.90;;;;;;;22.74;48.86;98887.81;5105678;28;20221;-70
2022/05/26 12:02:51;;;;;;;2.73;1.13;;;;;;;22.75;49.24;98889.50;5108540;28;20288;-70
2022/05/26 12:05:43;;;;;;;1.07;0.80;;;;;;;22.21;48.38;98889.94;5099551;28;20273;-69
2022/05/26 12:08:56;;;;;;;2.60;1.10;;;;;;;21.66;50.44;98896.59;5096698;28;20217;-70
2022/05/26 12:11:55;;;;;;;3.43;1.10;;;;;;;21.08;52.61;98891.88;5044445;28;20227;-69
2022/05/26 12:14:23;;;;;;;1.57;1.03;;;;;;;20.88;54.18;98901.94;5036767;28;20215;-69
2022/05/26 12:16:51;;;;;;;1.93;1.23;;;;;;;20.97;54.31;98895.63;5086719;28;20234;-70
2022/05/26 12:19:41;;;;;;;2.07;1.10;;;;;;;20.98;55.07;98896.47;5094659;28;20287;-69
2022/05/26 12:22:22;;;;;;;2.13;1.20;;;;;;;21.15;55.41;98906.41;5094297;28;20268;-70